Time;durP1;ratioP1;P1;durP2;ratioP2;P2;SDS_P1;SDS_P2;PMS_P1;PMS_P2;Temp;Humidity;BMP_temperature;BMP_pressure;BME280_temperature;BME280_humidity;BME280_pressure;Samples;Min_cycle;Max_cycle;Signal;HPM_P1;HPM_P2
2022/11/04 00:02:07;;;;;;;6.68;3.50;;;13.10;71.40;;;;;;2375434;56;21557;-59
2022/11/04 00:04:34;;;;;;;6.65;3.92;;;13.10;71.60;;;;;;2375950;56;21665;-60
2022/11/04 00:08:22;;;;;;;11.80;4.75;;;13.10;71.70;;;;;;2375871;56;21585;-58
2022/11/04 00:13:39;;;;;;;11.10;4.40;;;13.10;71.60;;;;;;2376077;56;21057;-60
2022/11/04 00:18:52;;;;;;;8.35;4.28;;;13.10;72.00;;;;;;2375548;56;21513;-59
2022/11/04 00:29:39;;;;;;;8.75;4.45;;;13.00;72.50;;;;;;2374721;56;21090;-59
2022/11/04 00:34:53;;;;;;;8.45;4.43;;;13.00;73.10;;;;;;2374921;56;21003;-60
2022/11/04 00:37:20;;;;;;;11.70;4.68;;;13.00;73.20;;;;;;2373791;56;21557;-58
2022/11/04 00:39:47;;;;;;;11.75;4.87;;;13.00;73.50;;;;;;2374936;56;21556;-60
2022/11/04 00:42:14;;;;;;;12.32;4.93;;;13.00;73.50;;;;;;2374671;56;21616;-60
2022/11/04 00:44:41;;;;;;;9.00;5.00;;;13.00;73.60;;;;;;2374857;56;21624;-60
2022/11/04 00:47:09;;;;;;;13.82;5.10;;;13.00;73.80;;;;;;2374534;56;21055;-60
2022/11/04 00:49:36;;;;;;;6.32;4.32;;;13.00;73.80;;;;;;2374646;56;21110;-60
2022/11/04 00:52:04;;;;;;;12.55;4.85;;;13.00;73.90;;;;;;2374881;56;21506;-60
2022/11/04 00:54:31;;;;;;;8.38;4.93;;;13.00;74.00;;;;;;2374259;56;21035;-60
2022/11/04 00:56:59;;;;;;;13.45;4.75;;;13.00;74.20;;;;;;2374135;56;21090;-60
2022/11/04 00:59:26;;;;;;;8.25;4.20;;;13.00;74.30;;;;;;2373100;56;21094;-60
2022/11/04 01:01:54;;;;;;;10.00;5.57;;;13.00;74.30;;;;;;2375053;56;21051;-60
2022/11/04 01:04:21;;;;;;;9.90;4.68;;;13.00;74.20;;;;;;2375021;56;22211;-60
2022/11/04 01:06:49;;;;;;;9.68;5.30;;;13.00;74.30;;;;;;2374906;56;21615;-60
2022/11/04 01:09:16;;;;;;;12.18;4.95;;;13.00;74.50;;;;;;2374197;56;21600;-60
2022/11/04 01:11:44;;;;;;;11.12;4.40;;;13.00;74.40;;;;;;2374643;56;21114;-60
2022/11/04 01:14:11;;;;;;;7.65;4.43;;;13.00;74.50;;;;;;2374093;56;21561;-60
2022/11/04 01:16:39;;;;;;;8.93;5.28;;;13.00;74.60;;;;;;2373715;56;21121;-60
2022/11/04 01:19:07;;;;;;;10.55;5.10;;;13.00;74.60;;;;;;2374603;56;21606;-59
2022/11/04 01:21:34;;;;;;;8.57;4.32;;;13.00;74.80;;;;;;2374880;56;21158;-59
2022/11/04 01:24:01;;;;;;;10.80;4.95;;;13.00;74.80;;;;;;2374834;56;21628;-60
2022/11/04 01:26:29;;;;;;;8.63;5.53;;;13.00;74.80;;;;;;2374643;56;21517;-60
2022/11/04 01:28:58;;;;;;;8.30;4.57;;;13.10;74.90;;;;;;2373619;56;21566;-60
2022/11/04 01:31:28;;;;;;;10.23;4.97;;;13.10;74.90;;;;;;2374934;56;21845;-60
2022/11/04 01:33:56;;;;;;;8.50;4.30;;;13.10;74.90;;;;;;2374885;56;21588;-60
2022/11/04 01:36:25;;;;;;;7.18;4.80;;;13.10;74.80;;;;;;2374573;56;21027;-59
2022/11/04 01:38:54;;;;;;;8.05;4.55;;;13.10;74.90;;;;;;2374555;56;21777;-60
2022/11/04 01:41:23;;;;;;;9.52;4.80;;;13.10;75.00;;;;;;2374793;56;21019;-59
2022/11/04 01:43:52;;;;;;;11.23;4.85;;;13.10;75.10;;;;;;2374682;56;21556;-60
2022/11/04 01:46:28;;;;;;;9.38;4.43;;;13.10;75.10;;;;;;2374735;56;21637;-60
2022/11/04 01:49:02;;;;;;;10.27;5.10;;;13.10;75.00;;;;;;2374438;56;21643;-60
2022/11/04 01:51:32;;;;;;;8.18;4.97;;;13.10;75.00;;;;;;2374666;56;21062;-60
2022/11/04 01:54:00;;;;;;;10.60;5.03;;;13.10;75.00;;;;;;2374983;56;21074;-59
2022/11/04 01:56:28;;;;;;;10.20;4.85;;;13.10;75.10;;;;;;2374717;56;21620;-60
2022/11/04 01:59:01;;;;;;;8.30;4.87;;;13.10;75.10;;;;;;2374614;56;21858;-60
2022/11/04 02:01:28;;;;;;;;;;;13.10;75.10;;;;;;2378190;56;21592;-59
2022/11/04 02:04:24;;;;;;;10.35;5.10;;;13.20;75.00;;;;;;2374434;56;20212;-58
2022/11/04 02:06:53;;;;;;;7.60;5.37;;;13.20;74.70;;;;;;2374841;56;21581;-59
2022/11/04 02:09:22;;;;;;;11.55;4.72;;;13.20;74.90;;;;;;2374436;56;21656;-59
2022/11/04 02:14:36;;;;;;;9.40;4.72;;;13.20;75.20;;;;;;2374782;56;21054;-58
2022/11/04 02:17:13;;;;;;;8.02;4.20;;;13.20;75.20;;;;;;2374727;56;21513;-60
2022/11/04 02:20:05;;;;;;;10.77;4.78;;;13.10;75.30;;;;;;2373972;56;21050;-59
2022/11/04 02:22:57;;;;;;;13.57;5.00;;;13.20;75.30;;;;;;2374410;56;21098;-60
2022/11/04 02:25:51;;;;;;;11.35;5.10;;;13.20;75.20;;;;;;2374758;56;21703;-58
2022/11/04 02:28:37;;;;;;;6.28;4.18;;;13.20;75.20;;;;;;2375214;56;21086;-55
2022/11/04 02:31:13;;;;;;;9.60;4.50;;;13.10;75.20;;;;;;2375098;56;21541;-56
2022/11/04 02:33:46;;;;;;;6.78;4.62;;;13.20;75.50;;;;;;2374391;56;21545;-56
2022/11/04 02:36:20;;;;;;;6.93;3.75;;;13.20;75.50;;;;;;2375158;56;21094;-56
2022/11/04 02:38:54;;;;;;;6.93;5.25;;;13.30;75.50;;;;;;2375058;56;21050;-56
2022/11/04 02:41:30;;;;;;;12.73;5.18;;;13.30;75.40;;;;;;2374855;56;21043;-56
2022/11/04 02:44:08;;;;;;;12.40;4.60;;;13.30;75.50;;;;;;2375283;56;21524;-55
2022/11/04 02:46:39;;;;;;;6.55;4.40;;;13.30;75.40;;;;;;2375175;56;21509;-58
2022/11/04 02:49:11;;;;;;;8.07;3.97;;;13.30;75.50;;;;;;2375349;56;21527;-58
2022/11/04 02:51:44;;;;;;;8.07;4.68;;;13.40;75.70;;;;;;2375249;56;21712;-57
2022/11/04 02:54:16;;;;;;;7.78;4.40;;;13.40;75.60;;;;;;2375424;56;21514;-57
2022/11/04 02:56:49;;;;;;;10.38;5.35;;;13.40;75.70;;;;;;2374858;56;21546;-55
2022/11/04 02:59:22;;;;;;;9.75;4.80;;;13.40;75.70;;;;;;2375256;56;21110;-56
2022/11/04 03:01:52;;;;;;;8.52;4.93;;;13.50;75.80;;;;;;2375364;56;21046;-57
2022/11/04 03:04:23;;;;;;;10.88;5.18;;;13.50;75.80;;;;;;2374994;56;21732;-56
2022/11/04 03:09:30;;;;;;;7.50;4.90;;;13.50;76.10;;;;;;2344769;57;22111;-56
2022/11/04 03:12:02;;;;;;;8.55;4.95;;;13.50;76.30;;;;;;2347548;57;21096;-53
2022/11/04 03:14:35;;;;;;;8.57;5.00;;;13.50;76.50;;;;;;2348094;57;21609;-57
2022/11/04 03:17:05;;;;;;;10.50;5.50;;;13.50;76.60;;;;;;2347856;57;21105;-57
2022/11/04 03:19:41;;;;;;;7.10;4.57;;;13.50;76.70;;;;;;2347932;57;21643;-53
2022/11/04 03:22:12;;;;;;;7.45;5.25;;;13.50;77.00;;;;;;2347921;57;21100;-56
2022/11/04 03:24:40;;;;;;;10.63;5.30;;;13.50;77.20;;;;;;2347971;57;21525;-56
2022/11/04 03:27:19;;;;;;;9.52;5.72;;;13.50;77.40;;;;;;2347523;57;21591;-57
2022/11/04 03:29:55;;;;;;;7.45;4.68;;;13.50;77.60;;;;;;2348077;57;21039;-55
2022/11/04 03:32:30;;;;;;;7.25;5.10;;;13.50;77.80;;;;;;2347797;57;21524;-55
2022/11/04 03:34:57;;;;;;;10.70;5.30;;;13.50;77.90;;;;;;2348042;57;21113;-58
2022/11/04 03:37:25;;;;;;;8.32;5.03;;;13.60;78.10;;;;;;2347804;57;21022;-52
2022/11/04 03:39:52;;;;;;;7.75;5.40;;;13.50;78.30;;;;;;2347697;57;21057;-56
2022/11/04 03:42:22;;;;;;;11.18;6.72;;;13.50;78.30;;;;;;2347624;57;21038;-57
2022/11/04 03:44:50;;;;;;;12.52;5.95;;;13.50;78.50;;;;;;2348091;57;21037;-52
2022/11/04 03:47:20;;;;;;;9.38;6.22;;;13.50;78.60;;;;;;2348065;57;21141;-54
2022/11/04 03:49:48;;;;;;;12.13;6.07;;;13.50;78.70;;;;;;2348234;57;21541;-55
2022/11/04 03:52:16;;;;;;;10.18;5.68;;;13.60;78.70;;;;;;2347914;57;21520;-57
2022/11/04 03:54:45;;;;;;;10.95;6.20;;;13.50;78.60;;;;;;2348130;57;21521;-55
2022/11/04 03:57:42;;;;;;;10.48;6.45;;;13.50;78.50;;;;;;2348127;57;21516;-55
2022/11/04 04:00:13;;;;;;;8.10;6.12;;;13.50;78.70;;;;;;2347893;57;21572;-56
2022/11/04 04:02:59;;;;;;;11.30;7.37;;;13.50;78.70;;;;;;2347843;57;21097;-53
2022/11/04 04:05:29;;;;;;;8.32;5.80;;;13.50;78.90;;;;;;2347831;57;21525;-55
2022/11/04 04:08:09;;;;;;;9.35;6.55;;;13.60;78.50;;;;;;2348116;57;21619;-58
2022/11/04 04:10:41;;;;;;;16.98;6.62;;;13.50;78.80;;;;;;2348059;57;21576;-57
2022/11/04 04:13:18;;;;;;;12.80;6.50;;;13.50;78.90;;;;;;2347629;57;21508;-58
2022/11/04 04:15:51;;;;;;;11.25;6.62;;;13.50;79.00;;;;;;2347669;57;21320;-56
2022/11/04 04:18:27;;;;;;;9.20;5.87;;;13.50;79.00;;;;;;2348276;57;21034;-57
2022/11/04 04:20:57;;;;;;;10.55;6.87;;;13.60;79.10;;;;;;2346765;57;21030;-53
2022/11/04 04:29:05;;;;;;;10.45;6.28;;;13.60;79.10;;;;;;2346761;57;21586;-55
2022/11/04 04:31:51;;;;;;;16.52;7.12;;;13.60;79.10;;;;;;2346107;57;21616;-55
2022/11/04 04:34:21;;;;;;;16.80;7.75;;;13.50;78.90;;;;;;2347111;57;21564;-56
2022/11/04 04:36:55;;;;;;;14.20;7.25;;;13.60;79.00;;;;;;2346654;57;21033;-55
2022/11/04 04:47:41;;;;;;;13.73;8.32;;;13.50;78.90;;;;;;2336553;57;27841;-52
2022/11/04 04:50:12;;;;;;;11.98;8.05;;;13.30;81.60;;;;;;2367333;56;21050;-58
2022/11/04 04:52:42;;;;;;;11.88;7.25;;;13.50;80.70;;;;;;2375451;56;21549;-55
2022/11/04 04:55:12;;;;;;;14.35;8.38;;;13.50;79.90;;;;;;2375560;56;21546;-54
2022/11/04 04:57:39;;;;;;;10.27;6.57;;;13.50;79.60;;;;;;2375661;56;21580;-53
2022/11/04 05:00:11;;;;;;;11.80;6.90;;;13.60;79.40;;;;;;2375922;56;21177;-58
2022/11/04 05:02:38;;;;;;;9.90;6.55;;;13.60;79.10;;;;;;2375413;56;21114;-55
2022/11/04 05:05:08;;;;;;;12.43;6.85;;;13.60;79.00;;;;;;2374974;56;21051;-57
2022/11/04 05:07:35;;;;;;;10.43;6.20;;;13.60;78.70;;;;;;2375325;56;21122;-54
2022/11/04 05:10:03;;;;;;;10.75;6.25;;;13.60;78.70;;;;;;2375558;56;21507;-55
2022/11/04 05:13:24;;;;;;;10.35;6.25;;;13.50;78.60;;;;;;2375533;56;21522;-55
2022/11/04 05:15:51;;;;;;;12.75;7.00;;;13.60;78.40;;;;;;2375703;56;21546;-59
2022/11/04 05:18:19;;;;;;;10.73;5.82;;;13.50;78.40;;;;;;2376041;56;21031;-55
2022/11/04 05:20:47;;;;;;;9.73;6.12;;;13.60;78.60;;;;;;2375652;56;21506;-56
2022/11/04 05:23:14;;;;;;;7.72;5.62;;;13.50;78.80;;;;;;2375428;56;21853;-57
2022/11/04 05:25:41;;;;;;;8.95;5.50;;;13.50;78.80;;;;;;2375245;56;21055;-56
2022/11/04 05:28:09;;;;;;;9.95;5.15;;;13.50;78.90;;;;;;2375144;56;21046;-54
2022/11/04 05:30:37;;;;;;;9.32;5.62;;;13.50;78.60;;;;;;2375230;56;21687;-57
2022/11/04 05:33:04;;;;;;;10.45;5.15;;;13.50;78.80;;;;;;2375305;56;21131;-53
2022/11/04 05:35:31;;;;;;;6.43;4.70;;;13.60;78.60;;;;;;2375659;56;21534;-56
2022/11/04 05:37:58;;;;;;;6.25;4.22;;;13.60;78.60;;;;;;2375506;56;22117;-55
2022/11/04 05:40:26;;;;;;;6.65;4.50;;;13.60;78.50;;;;;;2375073;56;21127;-56
2022/11/04 05:42:53;;;;;;;9.65;4.95;;;13.50;78.10;;;;;;2375020;56;21062;-57
2022/11/04 05:45:20;;;;;;;5.05;4.05;;;13.60;78.00;;;;;;2375757;56;21123;-56
2022/11/04 05:47:48;;;;;;;6.60;4.30;;;13.60;78.10;;;;;;2375522;56;21542;-55
2022/11/04 05:50:15;;;;;;;4.45;3.28;;;13.60;78.10;;;;;;2375187;56;21501;-57
2022/11/04 05:52:42;;;;;;;6.20;3.72;;;13.60;78.10;;;;;;2375371;56;21107;-57
2022/11/04 05:55:10;;;;;;;5.50;3.65;;;13.60;78.10;;;;;;2375247;56;21042;-53
2022/11/04 05:57:37;;;;;;;6.75;3.60;;;13.60;77.80;;;;;;2374747;56;21035;-57
2022/11/04 06:00:07;;;;;;;4.60;3.10;;;13.60;77.90;;;;;;2374362;56;21609;-57
2022/11/04 06:02:35;;;;;;;4.35;3.45;;;13.60;77.60;;;;;;2373836;56;21771;-58
2022/11/04 06:05:02;;;;;;;5.43;3.40;;;13.60;77.40;;;;;;2374294;56;21089;-56
2022/11/04 06:07:29;;;;;;;5.55;3.00;;;13.60;77.20;;;;;;2373003;56;21154;-57
2022/11/04 06:09:56;;;;;;;4.03;2.70;;;13.60;76.90;;;;;;2374250;56;21114;-58
2022/11/04 06:12:23;;;;;;;4.30;2.80;;;13.60;76.60;;;;;;2374875;56;21059;-57
2022/11/04 06:14:51;;;;;;;5.00;3.00;;;13.60;75.90;;;;;;2374685;56;21081;-55
2022/11/04 06:17:19;;;;;;;6.87;3.10;;;13.60;76.20;;;;;;2373329;56;21142;-55
2022/11/04 06:19:48;;;;;;;3.20;2.37;;;13.60;76.20;;;;;;2373948;56;21118;-56
2022/11/04 06:22:16;;;;;;;3.25;2.37;;;13.60;76.10;;;;;;2374647;56;21039;-56
2022/11/04 06:24:44;;;;;;;4.68;3.10;;;13.60;76.00;;;;;;2374804;56;21633;-57
2022/11/04 06:27:12;;;;;;;3.37;3.08;;;13.60;76.00;;;;;;2373944;56;21086;-54
2022/11/04 06:29:40;;;;;;;3.62;2.80;;;13.60;75.80;;;;;;2374031;56;21066;-56
2022/11/04 06:34:43;;;;;;;4.85;3.10;;;13.60;76.00;;;;;;2336046;57;28436;-57
2022/11/04 06:37:10;;;;;;;4.40;2.50;;;13.40;78.00;;;;;;2347988;57;21551;-61
2022/11/04 06:39:37;;;;;;;3.85;2.55;;;13.60;77.30;;;;;;2361861;56;21166;-61
2022/11/04 06:44:41;;;;;;;4.43;3.00;;;13.70;75.60;;;;;;2356726;57;22078;-59
2022/11/04 06:47:09;;;;;;;3.58;3.28;;;13.70;75.50;;;;;;2347922;57;21619;-60
2022/11/04 06:49:36;;;;;;;5.53;3.00;;;13.70;75.40;;;;;;2361323;56;21652;-60
2022/11/04 06:52:04;;;;;;;3.70;2.65;;;13.70;75.20;;;;;;2375474;56;21122;-54
2022/11/04 06:54:31;;;;;;;5.90;2.75;;;13.70;75.20;;;;;;2375652;56;21427;-60
2022/11/04 06:56:59;;;;;;;5.00;3.10;;;13.70;74.60;;;;;;2375766;56;21042;-58
2022/11/04 06:59:26;;;;;;;3.47;2.85;;;13.60;74.70;;;;;;2375558;56;21039;-61
2022/11/04 07:01:53;;;;;;;5.65;3.45;;;13.70;74.80;;;;;;2512234;53;21060;-60
2022/11/04 07:04:20;;;;;;;3.58;2.90;;;13.60;74.70;;;;;;2312922;58;21779;-59
2022/11/04 07:06:48;;;;;;;4.20;3.17;;;13.70;74.80;;;;;;2314244;58;21063;-54
2022/11/04 07:09:16;;;;;;;4.15;3.58;;;13.70;74.80;;;;;;2303979;58;21058;-58
2022/11/04 07:11:44;;;;;;;4.25;3.30;;;13.60;74.70;;;;;;2288388;59;21134;-60
2022/11/04 07:14:11;;;;;;;4.82;3.30;;;13.60;74.90;;;;;;2288645;59;21141;-59
2022/11/04 07:16:39;;;;;;;5.00;2.97;;;13.60;74.90;;;;;;2288761;59;21277;-60
2022/11/04 07:19:07;;;;;;;6.57;3.70;;;13.60;74.70;;;;;;2288410;59;21122;-60
2022/11/04 07:21:34;;;;;;;4.50;3.25;;;13.60;74.70;;;;;;2288887;59;21581;-59
2022/11/04 07:24:02;;;;;;;5.70;3.25;;;13.60;74.70;;;;;;2288946;59;21158;-60
2022/11/04 07:26:29;;;;;;;3.87;3.20;;;13.60;74.70;;;;;;2288419;59;21115;-60
2022/11/04 07:28:56;;;;;;;4.37;3.17;;;13.70;74.50;;;;;;2288395;59;21182;-60
2022/11/04 07:31:24;;;;;;;3.35;2.70;;;13.60;74.50;;;;;;2288491;59;22155;-60
2022/11/04 07:33:52;;;;;;;3.47;2.95;;;13.60;74.50;;;;;;2288836;59;21637;-60
2022/11/04 07:36:20;;;;;;;4.15;3.15;;;13.70;75.00;;;;;;2288233;59;21575;-60
2022/11/04 07:38:47;;;;;;;4.72;3.37;;;13.60;74.40;;;;;;2288836;59;21150;-59
2022/11/04 07:41:15;;;;;;;4.40;3.08;;;13.60;74.60;;;;;;2288794;59;21553;-59
2022/11/04 07:43:47;;;;;;;4.03;3.10;;;13.60;74.60;;;;;;2287398;59;22105;-60
2022/11/04 07:46:14;;;;;;;5.03;3.33;;;13.70;74.70;;;;;;2288677;59;21055;-59
2022/11/04 07:51:20;;;;;;;6.30;3.25;;;13.60;74.90;;;;;;2301060;58;22199;-59
2022/11/04 07:53:47;;;;;;;4.10;3.60;;;13.60;74.60;;;;;;2292729;58;21062;-58
2022/11/04 07:56:14;;;;;;;5.07;4.07;;;13.60;74.50;;;;;;2293209;58;21131;-58
2022/11/04 07:58:42;;;;;;;3.60;3.12;;;13.60;74.60;;;;;;2295553;58;21076;-61
2022/11/04 08:01:11;;;;;;;5.47;3.80;;;13.60;74.60;;;;;;2319246;58;21025;-59
2022/11/04 08:03:40;;;;;;;6.78;3.85;;;13.60;74.70;;;;;;2319115;58;21566;-59
2022/11/04 08:06:09;;;;;;;5.07;3.55;;;13.60;74.60;;;;;;2319191;58;21061;-59
2022/11/04 08:08:36;;;;;;;4.93;3.95;;;13.60;74.80;;;;;;2319309;58;21572;-59
2022/11/04 08:11:07;;;;;;;4.78;3.97;;;13.60;74.80;;;;;;2319178;58;21046;-59
2022/11/04 08:13:36;;;;;;;6.75;4.37;;;13.60;74.90;;;;;;2319052;58;21738;-59
2022/11/04 08:16:08;;;;;;;5.10;4.22;;;13.70;74.80;;;;;;2318771;58;21054;-59
2022/11/04 08:18:36;;;;;;;7.37;4.80;;;13.60;74.70;;;;;;2319209;58;21065;-59
2022/11/04 08:21:04;;;;;;;5.20;4.47;;;13.60;74.70;;;;;;2318675;58;21061;-59
2022/11/04 08:23:33;;;;;;;5.68;4.10;;;13.60;74.70;;;;;;2318621;58;21582;-60
2022/11/04 08:26:00;;;;;;;6.40;4.53;;;13.60;74.80;;;;;;2318824;58;22610;-59
2022/11/04 08:28:28;;;;;;;6.18;4.62;;;13.70;74.60;;;;;;2319368;58;21588;-59
2022/11/04 08:30:58;;;;;;;7.75;4.90;;;13.70;74.60;;;;;;2319206;58;21548;-59
2022/11/04 08:33:26;;;;;;;6.35;4.55;;;13.70;74.50;;;;;;2318931;58;21564;-60
2022/11/04 08:35:55;;;;;;;6.35;4.53;;;13.70;74.60;;;;;;2318978;58;21600;-59
2022/11/04 08:38:22;;;;;;;6.68;5.35;;;13.70;74.60;;;;;;2319110;58;21056;-57
2022/11/04 08:40:50;;;;;;;5.95;5.07;;;13.80;74.50;;;;;;2319236;58;21524;-58
2022/11/04 08:43:17;;;;;;;9.77;5.80;;;13.70;74.70;;;;;;2319278;58;21662;-59
2022/11/04 08:45:45;;;;;;;6.25;5.43;;;13.70;74.50;;;;;;2319085;58;21054;-59
2022/11/04 08:48:15;;;;;;;9.15;4.65;;;13.80;74.50;;;;;;2318749;58;21073;-60
2022/11/04 08:50:43;;;;;;;5.95;4.80;;;13.80;74.40;;;;;;2319262;58;21691;-59
2022/11/04 08:53:10;;;;;;;8.50;5.20;;;13.80;74.30;;;;;;2319533;58;21568;-59
2022/11/04 08:55:38;;;;;;;5.07;4.57;;;13.80;74.20;;;;;;2318934;58;21552;-60
2022/11/04 08:58:05;;;;;;;7.20;4.62;;;13.80;74.10;;;;;;2319306;58;21614;-59
2022/11/04 09:00:32;;;;;;;6.80;5.03;;;13.80;73.80;;;;;;2319294;58;21532;-58
2022/11/04 09:02:59;;;;;;;7.47;5.35;;;13.80;73.70;;;;;;2317962;58;21053;-59
2022/11/04 09:05:27;;;;;;;7.12;4.70;;;13.80;73.20;;;;;;2317648;58;21128;-59
2022/11/04 09:07:55;;;;;;;5.65;4.37;;;13.80;73.40;;;;;;2318287;58;21520;-59
2022/11/04 09:10:22;;;;;;;6.10;4.32;;;13.80;73.60;;;;;;2318212;58;21132;-59
2022/11/04 09:12:50;;;;;;;5.62;4.30;;;13.80;73.60;;;;;;2318726;58;21565;-59
2022/11/04 09:15:17;;;;;;;5.55;4.50;;;13.90;73.30;;;;;;2317815;58;21623;-59
2022/11/04 09:17:45;;;;;;;5.12;4.45;;;13.90;73.30;;;;;;2318283;58;21041;-59
2022/11/04 09:20:12;;;;;;;6.10;4.57;;;13.90;73.40;;;;;;2317108;58;21087;-60
2022/11/04 09:22:39;;;;;;;6.82;4.32;;;13.90;73.20;;;;;;2318133;58;21580;-59
2022/11/04 09:25:09;;;;;;;7.05;5.18;;;14.00;73.20;;;;;;2317820;58;21579;-58
2022/11/04 09:27:36;;;;;;;7.47;5.07;;;14.00;72.70;;;;;;2318049;58;21528;-59
2022/11/04 09:30:06;;;;;;;7.62;4.93;;;14.00;73.10;;;;;;2318080;58;21076;-60
2022/11/04 09:32:33;;;;;;;5.12;4.55;;;14.00;72.90;;;;;;2318218;58;21109;-60
2022/11/04 09:35:00;;;;;;;5.28;4.40;;;14.10;72.90;;;;;;2317913;58;21133;-59
2022/11/04 09:37:28;;;;;;;7.75;4.87;;;14.10;72.90;;;;;;2318062;58;21057;-59
2022/11/04 09:39:55;;;;;;;8.77;5.20;;;14.10;72.90;;;;;;2318059;58;21544;-59
2022/11/04 09:42:39;;;;;;;7.65;4.53;;;14.20;72.80;;;;;;2318343;58;21916;-60
2022/11/04 09:45:12;;;;;;;4.72;4.05;;;14.20;72.80;;;;;;2318176;58;21639;-59
2022/11/04 09:47:42;;;;;;;6.32;4.55;;;14.20;72.80;;;;;;2317989;58;21101;-58
2022/11/04 09:50:18;;;;;;;7.30;4.30;;;14.30;72.50;;;;;;2318134;58;21671;-59
2022/11/04 09:52:53;;;;;;;4.97;4.47;;;14.30;72.50;;;;;;2317765;58;21536;-59
2022/11/04 09:55:28;;;;;;;4.87;4.20;;;14.30;72.70;;;;;;2318243;58;21054;-59
2022/11/04 09:57:57;;;;;;;5.35;4.35;;;14.30;72.20;;;;;;2317757;58;21591;-59
2022/11/04 10:00:25;;;;;;;7.28;3.97;;;14.40;72.10;;;;;;2318182;58;21591;-59
2022/11/04 10:03:18;;;;;;;4.55;3.87;;;14.40;72.10;;;;;;2318383;58;21540;-59
2022/11/04 10:06:00;;;;;;;4.50;3.83;;;14.40;71.90;;;;;;2318165;58;21725;-58
2022/11/04 10:08:51;;;;;;;4.72;3.78;;;14.50;71.50;;;;;;2317910;58;21513;-59
2022/11/04 10:11:26;;;;;;;6.62;3.67;;;14.50;70.60;;;;;;2318000;58;21116;-59
2022/11/04 10:14:10;;;;;;;4.05;3.40;;;14.50;70.40;;;;;;2318069;58;21165;-58
2022/11/04 10:16:53;;;;;;;3.47;2.85;;;14.50;70.60;;;;;;2317663;58;21666;-59
2022/11/04 10:19:44;;;;;;;6.32;2.90;;;14.50;70.60;;;;;;2318183;58;21137;-59
2022/11/04 10:22:21;;;;;;;3.28;2.42;;;14.50;70.00;;;;;;2318070;58;21638;-59
2022/11/04 10:25:00;;;;;;;3.35;2.30;;;14.50;69.40;;;;;;2317892;58;21529;-59
2022/11/04 10:27:32;;;;;;;2.45;2.08;;;14.50;69.40;;;;;;2318169;58;21125;-59
2022/11/04 10:30:03;;;;;;;2.92;2.20;;;14.50;69.10;;;;;;2318127;58;21065;-61
2022/11/04 10:32:35;;;;;;;3.70;2.10;;;14.40;69.00;;;;;;2317497;58;21528;-61
2022/11/04 10:35:12;;;;;;;2.92;1.83;;;14.50;69.40;;;;;;2318171;58;21619;-61
2022/11/04 10:37:40;;;;;;;3.35;2.00;;;14.50;69.40;;;;;;2317648;58;21598;-59
2022/11/04 10:40:27;;;;;;;2.10;1.90;;;14.50;69.30;;;;;;2318473;58;21101;-61
2022/11/04 10:42:57;;;;;;;2.12;1.80;;;14.50;69.30;;;;;;2317894;58;21557;-61
2022/11/04 10:45:34;;;;;;;2.30;2.10;;;14.50;69.10;;;;;;2318183;58;21523;-61
2022/11/04 10:48:06;;;;;;;3.05;2.75;;;14.50;68.80;;;;;;2318300;58;21611;-60
2022/11/04 10:50:38;;;;;;;5.22;2.40;;;14.50;68.80;;;;;;2318690;58;21544;-55
2022/11/04 10:53:13;;;;;;;2.25;2.03;;;14.50;68.80;;;;;;2318381;58;21112;-59
2022/11/04 10:55:47;;;;;;;3.08;1.98;;;14.50;68.90;;;;;;2317966;58;21572;-58
2022/11/04 10:58:20;;;;;;;4.35;2.22;;;14.50;68.80;;;;;;2318305;58;21531;-58
2022/11/04 11:00:47;;;;;;;2.70;2.10;;;14.50;69.10;;;;;;2318181;58;21564;-58
2022/11/04 11:03:28;;;;;;;3.40;2.47;;;14.50;69.20;;;;;;2318652;58;21101;-55
2022/11/04 11:06:13;;;;;;;3.37;2.33;;;14.50;68.80;;;;;;2318213;58;21082;-56
2022/11/04 11:08:42;;;;;;;4.03;2.53;;;14.60;69.00;;;;;;2318362;58;21592;-58
2022/11/04 11:11:10;;;;;;;7.60;4.07;;;14.60;69.10;;;;;;2318411;58;21567;-58
2022/11/04 11:13:40;;;;;;;4.80;2.85;;;14.60;68.90;;;;;;2318050;58;21628;-58
2022/11/04 11:16:10;;;;;;;3.58;2.55;;;14.60;68.90;;;;;;2317965;58;21702;-57
2022/11/04 11:18:40;;;;;;;4.53;2.12;;;14.60;68.90;;;;;;2318381;58;21160;-58
2022/11/04 11:21:12;;;;;;;3.12;2.50;;;14.70;68.90;;;;;;2318155;58;21136;-58
2022/11/04 11:23:42;;;;;;;4.68;2.65;;;14.70;68.90;;;;;;2318445;58;21113;-55
2022/11/04 11:26:11;;;;;;;2.95;2.60;;;14.70;69.60;;;;;;2318053;58;21069;-58
2022/11/04 11:28:40;;;;;;;3.25;2.70;;;14.70;68.70;;;;;;2318224;58;21619;-56
2022/11/04 11:31:17;;;;;;;3.92;2.55;;;14.70;68.80;;;;;;2318033;58;21073;-58
2022/11/04 11:33:52;;;;;;;3.80;2.50;;;14.70;69.00;;;;;;2318255;58;21528;-55
2022/11/04 11:36:23;;;;;;;3.10;2.28;;;14.70;68.90;;;;;;2318235;58;21612;-59
2022/11/04 11:39:05;;;;;;;6.82;2.80;;;14.80;69.00;;;;;;2318260;58;21065;-55
2022/11/04 11:41:35;;;;;;;3.42;1.80;;;14.80;69.10;;;;;;2318329;58;21551;-56
2022/11/04 11:44:15;;;;;;;4.70;2.62;;;14.80;68.90;;;;;;2318430;58;21176;-57
2022/11/04 11:46:53;;;;;;;5.70;2.00;;;14.90;68.90;;;;;;2318093;58;21715;-57
2022/11/04 11:49:27;;;;;;;2.95;1.87;;;14.90;68.80;;;;;;2318281;58;21644;-59
2022/11/04 11:51:55;;;;;;;2.17;1.73;;;14.90;68.70;;;;;;2317920;58;21132;-58
2022/11/04 11:54:32;;;;;;;2.70;1.67;;;14.90;68.70;;;;;;2318469;58;22194;-57
2022/11/04 11:57:02;;;;;;;2.42;1.50;;;15.00;68.90;;;;;;2317788;58;21603;-56
2022/11/04 11:59:39;;;;;;;2.80;1.58;;;15.00;68.80;;;;;;2318372;58;21620;-58
2022/11/04 12:02:26;;;;;;;4.68;1.70;;;15.00;68.40;;;;;;2317990;58;21580;-56
2022/11/04 12:04:55;;;;;;;5.70;1.60;;;15.10;68.30;;;;;;2318261;58;21548;-60
2022/11/04 12:07:32;;;;;;;5.47;1.77;;;15.10;68.20;;;;;;2318299;58;21945;-57
2022/11/04 12:10:06;;;;;;;5.82;1.70;;;15.20;68.10;;;;;;2318277;58;21227;-57
2022/11/04 12:12:54;;;;;;;3.55;1.67;;;15.20;67.70;;;;;;2317907;58;21153;-58
2022/11/04 12:15:48;;;;;;;6.80;1.75;;;15.20;67.60;;;;;;2318519;58;21109;-56
2022/11/04 12:18:49;;;;;;;;;;;15.20;67.10;;;;;;2321912;58;21619;-59
2022/11/04 12:23:55;;;;;;;2.60;1.40;;;15.30;67.50;;;;;;2337002;57;27776;-56
2022/11/04 12:26:33;;;;;;;2.47;1.23;;;15.10;67.50;;;;;;2348216;57;21153;-53
2022/11/04 12:29:14;;;;;;;6.15;1.30;;;15.20;67.40;;;;;;2354276;56;21118;-58
2022/11/04 12:31:51;;;;;;;2.97;0.95;;;15.30;67.50;;;;;;2375899;56;21585;-58
2022/11/04 12:34:28;;;;;;;1.67;1.20;;;15.50;67.70;;;;;;2376042;56;21526;-56
2022/11/04 12:37:09;;;;;;;1.85;1.12;;;15.50;67.50;;;;;;2376009;56;21114;-57
2022/11/04 12:39:51;;;;;;;2.05;1.15;;;15.60;67.10;;;;;;2375956;56;21526;-57
2022/11/04 12:42:27;;;;;;;2.97;1.12;;;15.70;66.60;;;;;;2375800;56;21046;-58
2022/11/04 12:45:04;;;;;;;3.05;0.90;;;15.70;66.60;;;;;;2375508;56;21035;-59
2022/11/04 12:47:36;;;;;;;5.90;1.20;;;15.80;65.70;;;;;;2375802;56;21019;-56
2022/11/04 12:50:14;;;;;;;4.68;0.98;;;15.80;66.00;;;;;;2375588;56;21157;-56
2022/11/04 12:52:54;;;;;;;5.50;1.00;;;15.80;65.60;;;;;;2375866;56;21070;-57
2022/11/04 12:55:38;;;;;;;2.80;1.52;;;15.80;64.90;;;;;;2375936;56;21051;-58
2022/11/04 12:58:17;;;;;;;4.05;0.90;;;15.90;65.10;;;;;;2375626;56;21098;-57
2022/11/04 13:00:47;;;;;;;2.40;0.85;;;15.90;64.50;;;;;;2375654;56;21577;-58
2022/11/04 13:03:19;;;;;;;3.28;1.00;;;15.90;64.70;;;;;;2375929;56;21047;-57
2022/11/04 13:05:53;;;;;;;2.42;1.15;;;15.90;64.20;;;;;;2375611;56;21091;-60
2022/11/04 13:08:22;;;;;;;;;;;15.90;64.00;;;;;;2379219;56;21030;-57
2022/11/04 13:10:54;;;;;;;2.60;0.98;;;16.00;64.60;;;;;;2375686;56;20699;-56
2022/11/04 13:13:27;;;;;;;3.78;1.12;;;16.00;63.70;;;;;;2375975;56;21047;-57
2022/11/04 13:15:59;;;;;;;4.23;1.23;;;16.00;63.40;;;;;;2376479;56;21170;-57
2022/11/04 13:18:30;;;;;;;3.25;1.23;;;16.00;62.80;;;;;;2375851;56;21675;-56
2022/11/04 13:21:02;;;;;;;5.47;1.20;;;16.00;62.70;;;;;;2375278;56;21078;-59
2022/11/04 13:23:37;;;;;;;4.37;1.00;;;15.90;62.40;;;;;;2375688;56;21047;-58
2022/11/04 13:26:10;;;;;;;4.53;1.12;;;15.90;62.00;;;;;;2375497;56;21577;-59
2022/11/04 13:28:40;;;;;;;5.03;1.00;;;15.90;61.50;;;;;;2376040;56;21086;-55
2022/11/04 13:31:16;;;;;;;8.30;1.62;;;15.90;62.00;;;;;;2375703;56;21514;-58
2022/11/04 13:33:55;;;;;;;3.53;1.02;;;15.80;62.20;;;;;;2375315;56;21070;-58
2022/11/04 13:36:32;;;;;;;4.18;1.10;;;15.80;62.50;;;;;;2374902;56;21494;-55
2022/11/04 13:39:06;;;;;;;3.95;1.05;;;15.80;62.30;;;;;;2374520;56;21549;-58
2022/11/04 13:42:00;;;;;;;2.67;0.90;;;15.80;62.80;;;;;;2374898;56;21047;-58
2022/11/04 13:44:30;;;;;;;5.05;1.20;;;15.80;63.90;;;;;;2353051;56;21023;-58
2022/11/04 13:47:02;;;;;;;3.10;1.37;;;15.80;63.00;;;;;;2374907;56;21652;-58
2022/11/04 13:49:33;;;;;;;4.40;1.40;;;15.80;62.60;;;;;;2375034;56;21521;-58
2022/11/04 13:52:08;;;;;;;2.92;1.12;;;15.80;62.90;;;;;;2374695;56;21146;-58
2022/11/04 13:54:40;;;;;;;4.25;1.17;;;15.80;63.20;;;;;;2374852;56;21066;-58
2022/11/04 13:57:14;;;;;;;4.57;2.00;;;15.80;63.50;;;;;;2374637;56;22188;-57